Time;durP1;ratioP1;P1;durP2;ratioP2;P2;SDS_P1;SDS_P2;PMS_P1;PMS_P2;Temp;Humidity;BMP_temperature;BMP_pressure;BME280_temperature;BME280_humidity;BME280_pressure;Samples;Min_cycle;Max_cycle;Signal;HPM_P1;HPM_P2
2023/07/31 00:02:04;;;;;;;16.63;13.30;;;;;;;21.70;100.00;97130.50;5076531;28;20111;-77
2023/07/31 00:04:30;;;;;;;16.85;13.15;;;;;;;21.77;100.00;97139.69;5054919;28;20376;-77
2023/07/31 00:06:55;;;;;;;13.23;11.68;;;;;;;21.77;100.00;97139.69;5055384;28;20451;-77
2023/07/31 00:09:21;;;;;;;17.38;12.32;;;;;;;21.77;100.00;97130.66;5055370;28;20035;-77
2023/07/31 00:11:46;;;;;;;16.02;13.05;;;;;;;21.86;100.00;97132.34;5055081;28;20496;-76
2023/07/31 00:14:12;;;;;;;19.73;13.88;;;;;;;21.89;100.00;97132.88;5073056;28;20036;-77
2023/07/31 00:16:37;;;;;;;16.70;13.25;;;;;;;21.86;100.00;97135.91;5073154;28;20028;-77
2023/07/31 00:19:03;;;;;;;13.90;10.88;;;;;;;21.86;100.00;97130.47;5073322;28;20040;-77
2023/07/31 00:21:28;;;;;;;17.02;11.68;;;;;;;21.75;100.00;97116.38;5073330;28;20135;-77
2023/07/31 00:23:54;;;;;;;14.05;10.70;;;;;;;21.75;100.00;97113.66;5071527;28;20791;-77
2023/07/31 00:26:19;;;;;;;16.45;10.02;;;;;;;21.67;100.00;97108.22;5072992;28;20066;-77
2023/07/31 00:28:45;;;;;;;11.93;9.35;;;;;;;21.64;100.00;97109.44;5038283;28;20044;-76
2023/07/31 00:31:10;;;;;;;10.98;9.60;;;;;;;21.59;100.00;97098.22;5073180;28;20058;-77
2023/07/31 00:33:36;;;;;;;12.38;9.07;;;;;;;21.50;100.00;97091.09;5054857;28;20081;-76
2023/07/31 00:36:02;;;;;;;13.75;9.60;;;;;;;21.50;100.00;97091.09;5054875;28;20028;-77
2023/07/31 00:38:28;;;;;;;10.40;7.75;;;;;;;21.45;100.00;97083.44;5054979;28;20127;-77
2023/07/31 00:40:53;;;;;;;10.05;8.05;;;;;;;21.33;100.00;97083.97;5072509;28;20163;-76
2023/07/31 00:43:19;;;;;;;9.85;8.43;;;;;;;21.31;100.00;97084.16;5072664;28;20494;-76
2023/07/31 00:45:44;;;;;;;8.57;7.68;;;;;;;21.33;100.00;97081.25;5072441;28;20056;-76
2023/07/31 00:48:11;;;;;;;10.32;7.88;;;;;;;21.30;100.00;97073.44;5054632;28;20033;-76
2023/07/31 00:50:37;;;;;;;9.23;8.00;;;;;;;21.27;100.00;97063.75;5054993;28;20031;-76
2023/07/31 00:53:02;;;;;;;11.02;7.97;;;;;;;21.28;100.00;97062.75;5054373;28;20025;-77
2023/07/31 00:55:29;;;;;;;12.82;9.55;;;;;;;21.27;100.00;97054.75;5071236;28;20085;-76
2023/07/31 00:57:56;;;;;;;9.70;8.40;;;;;;;21.11;100.00;97044.72;5037588;28;20028;-76
2023/07/31 01:00:21;;;;;;;14.52;9.57;;;;;;;21.02;100.00;97037.56;5054510;28;20027;-76
2023/07/31 01:02:48;;;;;;;13.38;9.35;;;;;;;21.07;100.00;97046.91;5054526;28;20399;-76
2023/07/31 01:05:14;;;;;;;23.63;10.88;;;;;;;21.18;100.00;97059.34;5072250;28;20031;-77
2023/07/31 01:07:52;;;;;;;11.65;9.95;;;;;;;21.17;100.00;97059.50;5072243;28;20021;-76
2023/07/31 01:10:24;;;;;;;12.05;10.75;;;;;;;21.25;100.00;97060.38;5037717;28;20432;-77
2023/07/31 01:12:51;;;;;;;13.65;11.15;;;;;;;21.27;100.00;97065.63;5054065;28;20040;-76
2023/07/31 01:15:17;;;;;;;13.90;11.23;;;;;;;21.25;100.00;97059.50;5054053;28;20040;-77
2023/07/31 01:17:43;;;;;;;13.32;11.32;;;;;;;21.34;100.00;97063.91;5072139;28;20058;-77
2023/07/31 01:20:21;;;;;;;15.23;11.40;;;;;;;21.33;100.00;97073.09;5071940;28;20052;-77
2023/07/31 01:23:09;;;;;;;15.23;11.35;;;;;;;21.32;100.00;97066.78;5054200;28;20108;-77
2023/07/31 01:25:53;;;;;;;14.90;11.45;;;;;;;21.37;100.00;97058.13;5037531;28;20032;-76
2023/07/31 01:28:37;;;;;;;12.13;10.57;;;;;;;21.24;100.00;97050.50;5071880;28;20024;-76
2023/07/31 01:31:07;;;;;;;12.73;11.20;;;;;;;21.33;100.00;97056.75;5071814;28;20024;-76
2023/07/31 01:33:32;;;;;;;11.38;9.82;;;;;;;21.34;100.00;97048.44;5054014;28;20024;-76
2023/07/31 01:35:58;;;;;;;14.60;10.02;;;;;;;21.28;100.00;97037.41;5053890;28;20502;-76
2023/07/31 01:38:23;;;;;;;11.88;9.95;;;;;;;21.33;100.00;97040.44;5053751;28;20055;-76
2023/07/31 01:40:53;;;;;;;11.38;9.48;;;;;;;21.29;100.00;97039.06;5071703;28;20090;-76
2023/07/31 01:43:19;;;;;;;12.05;9.52;;;;;;;21.31;100.00;97048.78;5053721;28;20028;-76
2023/07/31 01:45:44;;;;;;;11.80;9.02;;;;;;;21.39;100.00;97042.47;5053783;28;20028;-76
2023/07/31 01:48:10;;;;;;;12.32;9.68;;;;;;;21.40;100.00;97041.44;5071247;28;20039;-77
2023/07/31 01:50:35;;;;;;;12.43;9.68;;;;;;;21.34;100.00;97050.31;5053774;28;20107;-76
2023/07/31 01:53:01;;;;;;;12.88;10.73;;;;;;;21.31;100.00;97050.66;5053370;28;20040;-76
2023/07/31 01:55:26;;;;;;;17.23;10.95;;;;;;;21.30;100.00;97051.66;5053633;28;20407;-76
2023/07/31 01:57:52;;;;;;;13.15;10.95;;;;;;;21.32;100.00;97052.38;5036796;28;20107;-76
2023/07/31 02:00:18;;;;;;;13.52;10.68;;;;;;;21.28;100.00;97059.16;5053212;28;20037;-77
2023/07/31 02:02:43;;;;;;;12.68;10.52;;;;;;;21.25;100.00;97040.47;5053407;28;20028;-76
2023/07/31 02:05:09;;;;;;;15.90;11.60;;;;;;;21.27;100.00;97054.75;5053307;28;20029;-75
2023/07/31 02:07:34;;;;;;;17.73;11.90;;;;;;;21.26;100.00;97053.03;5053595;28;20427;-75
2023/07/31 02:10:00;;;;;;;16.20;12.32;;;;;;;21.25;100.00;97056.78;5053414;28;20053;-75
2023/07/31 02:12:25;;;;;;;15.10;12.27;;;;;;;21.25;100.00;97070.41;5070888;28;20028;-75
2023/07/31 02:14:51;;;;;;;19.40;12.90;;;;;;;21.21;100.00;97082.63;5071245;28;20028;-76
2023/07/31 02:17:16;;;;;;;14.35;11.70;;;;;;;21.18;100.00;97085.69;5071180;28;20086;-75
2023/07/31 02:19:42;;;;;;;16.10;12.60;;;;;;;21.13;100.00;97077.22;5071271;28;20020;-76
2023/07/31 02:22:07;;;;;;;14.77;12.35;;;;;;;21.26;100.00;97086.53;5071016;28;20071;-75
2023/07/31 02:24:33;;;;;;;16.92;13.77;;;;;;;21.33;100.00;97089.41;5071108;28;20025;-76
2023/07/31 02:26:58;;;;;;;17.05;12.98;;;;;;;21.38;100.00;97097.94;5070528;28;20020;-77
2023/07/31 02:29:27;;;;;;;20.23;14.95;;;;;;;21.29;100.00;97094.34;5070714;28;20048;-77
2023/07/31 02:31:52;;;;;;;20.95;15.25;;;;;;;21.38;100.00;97103.38;5036620;28;20036;-78
2023/07/31 02:34:18;;;;;;;15.48;13.25;;;;;;;21.41;100.00;97100.31;5070802;28;20028;-77
2023/07/31 02:36:43;;;;;;;27.50;17.48;;;;;;;21.34;100.00;97097.44;5052829;28;20110;-76
2023/07/31 02:39:09;;;;;;;19.85;14.02;;;;;;;21.26;100.00;97094.69;5052670;28;20534;-78
2023/07/31 02:41:34;;;;;;;12.13;10.70;;;;;;;21.16;100.00;97087.75;5053075;28;20024;-76
2023/07/31 02:44:00;;;;;;;14.00;10.40;;;;;;;21.13;100.00;97080.78;5070772;28;20032;-76
2023/07/31 02:46:25;;;;;;;11.13;9.27;;;;;;;21.18;100.00;97082.97;5052752;28;20106;-77
2023/07/31 02:48:51;;;;;;;11.75;8.95;;;;;;;21.16;100.00;97075.00;5070603;28;20071;-76
2023/07/31 02:51:18;;;;;;;12.50;9.10;;;;;;;21.13;100.00;97063.63;5052698;28;20449;-77
2023/07/31 02:53:43;;;;;;;14.30;9.15;;;;;;;21.08;100.00;97054.09;5070673;28;20450;-76
2023/07/31 02:56:08;;;;;;;10.00;8.57;;;;;;;21.07;100.00;97051.53;5052708;28;20028;-75
2023/07/31 02:58:34;;;;;;;10.32;8.90;;;;;;;20.97;100.00;97046.28;5070559;28;20181;-78
2023/07/31 03:00:59;;;;;;;12.18;9.07;;;;;;;20.96;100.00;97038.25;5069129;28;20029;-77
2023/07/31 03:03:25;;;;;;;11.82;9.68;;;;;;;20.95;100.00;97033.84;5035769;28;20033;-76
2023/07/31 03:05:53;;;;;;;11.35;9.43;;;;;;;20.93;100.00;97023.16;5070605;28;20565;-77
2023/07/31 03:08:19;;;;;;;12.25;9.95;;;;;;;20.90;100.00;97038.94;5052271;28;20032;-77
2023/07/31 03:10:44;;;;;;;18.38;11.13;;;;;;;20.86;100.00;97052.03;5052548;28;20035;-77
2023/07/31 03:13:10;;;;;;;15.85;11.48;;;;;;;20.83;100.00;97060.53;5070621;28;20090;-76
2023/07/31 03:15:35;;;;;;;13.25;11.35;;;;;;;20.87;100.00;97074.66;5052295;28;20111;-77
2023/07/31 03:18:01;;;;;;;15.13;11.98;;;;;;;20.89;100.00;97075.31;5085746;28;20042;-76
2023/07/31 03:20:26;;;;;;;15.93;13.35;;;;;;;20.87;100.00;97086.38;5052297;28;20067;-76
2023/07/31 03:22:52;;;;;;;17.20;12.52;;;;;;;20.85;100.00;97091.16;5052381;28;20040;-76
2023/07/31 03:25:17;;;;;;;22.05;13.32;;;;;;;20.87;100.00;97093.69;5070151;28;20111;-76
2023/07/31 03:27:43;;;;;;;15.05;12.15;;;;;;;20.94;100.00;97102.88;5070187;28;20024;-77
2023/07/31 03:30:09;;;;;;;15.45;13.32;;;;;;;20.96;100.00;97101.66;5070290;28;20389;-77
2023/07/31 03:32:34;;;;;;;17.73;13.82;;;;;;;20.98;100.00;97105.06;5070571;28;20093;-78
2023/07/31 03:35:00;;;;;;;16.02;13.32;;;;;;;21.04;100.00;97103.56;5070254;28;20028;-76
2023/07/31 03:37:26;;;;;;;16.05;12.65;;;;;;;21.06;100.00;97106.94;5069661;28;20106;-76
2023/07/31 03:39:51;;;;;;;18.70;13.73;;;;;;;21.13;100.00;97112.59;5073576;28;20025;-77
2023/07/31 03:42:19;;;;;;;20.00;14.35;;;;;;;21.11;100.00;97114.59;5074167;28;20055;-77
2023/07/31 03:44:44;;;;;;;18.23;14.45;;;;;;;21.19;100.00;97111.91;5074201;28;20016;-76
2023/07/31 03:47:10;;;;;;;15.48;13.00;;;;;;;21.27;100.00;97122.75;5073725;28;20028;-76
2023/07/31 03:49:35;;;;;;;16.83;13.57;;;;;;;21.28;100.00;97125.31;5055976;28;20025;-76
2023/07/31 03:52:01;;;;;;;16.15;13.57;;;;;;;21.36;100.00;97129.88;5056326;28;20495;-76
2023/07/31 03:54:27;;;;;;;17.00;12.02;;;;;;;21.42;100.00;97131.91;5055833;28;20054;-76
2023/07/31 03:56:53;;;;;;;17.42;12.20;;;;;;;21.45;100.00;97128.84;5073904;28;20103;-79
2023/07/31 03:59:19;;;;;;;14.38;12.05;;;;;;;21.53;100.00;97126.13;5073691;28;20055;-76
2023/07/31 04:01:44;;;;;;;16.60;12.43;;;;;;;21.47;100.00;97118.66;5073178;28;20068;-75
2023/07/31 04:04:10;;;;;;;12.48;10.90;;;;;;;21.42;100.00;97121.88;5073648;28;20028;-76
2023/07/31 04:06:35;;;;;;;13.38;10.85;;;;;;;21.56;100.00;97123.06;5073179;28;20032;-77
2023/07/31 04:09:02;;;;;;;18.80;12.68;;;;;;;21.52;100.00;97121.69;5074858;28;20036;-77
2023/07/31 04:11:28;;;;;;;17.80;12.07;;;;;;;21.53;100.00;97126.13;5054873;28;20037;-77
2023/07/31 04:13:53;;;;;;;16.27;10.38;;;;;;;21.57;100.00;97116.56;5073335;28;20032;-77
2023/07/31 04:16:19;;;;;;;14.45;9.85;;;;;;;21.58;100.00;97115.56;5073313;28;20032;-76
2023/07/31 04:18:45;;;;;;;20.05;11.50;;;;;;;21.53;100.00;97121.50;5064104;28;20480;-79
2023/07/31 04:21:11;;;;;;;17.70;11.27;;;;;;;21.51;100.00;97120.00;5070394;28;20032;-77
2023/07/31 04:23:37;;;;;;;17.35;12.52;;;;;;;21.60;100.00;97116.22;5069344;28;20131;-75
2023/07/31 04:26:02;;;;;;;15.98;11.07;;;;;;;21.70;100.00;97114.16;5072675;28;20024;-76
2023/07/31 04:28:28;;;;;;;27.52;12.88;;;;;;;21.70;100.00;97100.56;5072195;28;20043;-77
2023/07/31 04:30:53;;;;;;;13.60;9.93;;;;;;;21.78;100.00;97116.84;5071634;28;20025;-77
2023/07/31 04:33:19;;;;;;;18.20;11.18;;;;;;;21.79;100.00;97101.38;5072494;28;20115;-77
2023/07/31 04:35:52;;;;;;;13.10;10.30;;;;;;;21.74;100.00;97099.19;5072681;28;20084;-76
2023/07/31 04:38:24;;;;;;;13.65;10.35;;;;;;;21.76;100.00;97116.19;5054808;28;20040;-76
2023/07/31 04:40:49;;;;;;;15.73;10.37;;;;;;;21.77;100.00;97119.78;5054473;28;20040;-74
2023/07/31 04:43:15;;;;;;;18.02;11.30;;;;;;;21.81;100.00;97119.22;5072315;28;20396;-74
2023/07/31 04:45:43;;;;;;;18.13;11.98;;;;;;;21.83;100.00;97127.25;5072354;28;20035;-75
2023/07/31 04:48:11;;;;;;;16.00;11.45;;;;;;;21.89;100.00;97123.84;5072005;28;20538;-74
2023/07/31 04:50:36;;;;;;;14.75;11.32;;;;;;;21.87;100.00;97120.44;5071519;28;20404;-79
2023/07/31 04:53:02;;;;;;;13.85;11.18;;;;;;;21.90;100.00;97115.47;5067438;28;20028;-73
2023/07/31 04:55:27;;;;;;;22.33;13.73;;;;;;;21.98;100.00;97107.31;5049262;28;20074;-74
2023/07/31 04:57:53;;;;;;;19.15;12.77;;;;;;;22.15;100.00;97111.63;5069194;28;20020;-74
2023/07/31 05:00:18;;;;;;;14.02;10.43;;;;;;;22.31;100.00;97104.41;5069587;28;20036;-75
2023/07/31 05:02:44;;;;;;;14.93;10.23;;;;;;;22.40;100.00;97101.44;5051609;28;20434;-74
2023/07/31 05:05:09;;;;;;;19.20;10.88;;;;;;;22.45;100.00;97103.66;5069846;28;20029;-78
2023/07/31 05:07:35;;;;;;;14.20;10.60;;;;;;;22.58;100.00;97098.44;5053198;28;20016;-77
2023/07/31 05:10:00;;;;;;;18.67;13.85;;;;;;;22.75;100.00;97105.53;5053925;28;20078;-77
2023/07/31 05:12:26;;;;;;;16.52;10.82;;;;;;;22.92;100.00;97096.19;5036087;28;20403;-77
2023/07/31 05:14:51;;;;;;;14.32;10.77;;;;;;;22.99;100.00;97090.84;5051280;28;20028;-77
2023/07/31 05:17:17;;;;;;;15.38;11.23;;;;;;;23.03;100.00;97087.56;5051670;28;20442;-78
2023/07/31 05:20:21;;;;;;;19.48;11.35;;;;;;;22.95;100.00;97079.44;5035160;28;20032;-78
2023/07/31 05:22:46;;;;;;;17.67;10.82;;;;;;;23.06;100.00;97064.53;5069398;28;20040;-77
2023/07/31 05:25:12;;;;;;;17.67;10.27;;;;;;;23.26;100.00;97075.78;5035058;28;20119;-77
2023/07/31 05:27:38;;;;;;;15.63;9.70;;;;;;;23.46;100.00;97076.97;5051781;28;20025;-77
2023/07/31 05:30:04;;;;;;;16.40;9.68;;;;;;;23.72;100.00;97080.06;5051552;28;20031;-78
2023/07/31 05:32:32;;;;;;;29.58;12.15;;;;;;;23.99;100.00;97076.69;5069309;28;20512;-78
2023/07/31 05:34:58;;;;;;;19.85;14.40;;;;;;;24.62;100.00;97053.25;5051392;28;20027;-77
2023/07/31 05:37:24;;;;;;;14.80;9.80;;;;;;;25.57;100.00;97038.13;5051722;28;20040;-78
2023/07/31 05:39:50;;;;;;;18.27;9.07;;;;;;;26.82;100.00;97042.28;5067599;28;20054;-79
2023/07/31 05:42:16;;;;;;;14.82;8.30;;;;;;;27.89;100.00;97031.88;5034981;28;20036;-79
2023/07/31 05:44:41;;;;;;;12.40;7.85;;;;;;;28.74;100.00;97035.34;5050801;28;20031;-77
2023/07/31 05:47:07;;;;;;;8.77;6.60;;;;;;;30.24;100.00;97024.03;5050734;28;20543;-79
2023/07/31 05:49:34;;;;;;;23.48;16.25;;;;;;;31.22;100.00;97010.75;5050992;28;20032;-79
2023/07/31 05:52:02;;;;;;;9.02;7.13;;;;;;;31.52;99.94;97008.75;5050087;28;20032;-75
2023/07/31 05:54:27;;;;;;;8.88;6.35;;;;;;;31.67;95.60;97014.66;5068400;28;20031;-74
2023/07/31 05:56:53;;;;;;;7.65;5.95;;;;;;;31.54;98.60;97018.50;5068075;28;20020;-73
2023/07/31 05:59:18;;;;;;;12.20;8.80;;;;;;;31.40;100.00;97019.78;5068034;28;20028;-73
2023/07/31 06:01:44;;;;;;;9.23;7.03;;;;;;;31.48;100.00;97035.16;5067366;28;20471;-75
2023/07/31 06:04:15;;;;;;;10.15;6.60;;;;;;;31.39;100.00;97031.06;5068016;28;20020;-76
2023/07/31 06:06:47;;;;;;;11.85;7.07;;;;;;;31.90;99.15;97034.00;5067868;28;20392;-75
2023/07/31 06:09:13;;;;;;;28.10;20.35;;;;;;;31.02;100.00;97047.00;5067944;28;20064;-74
2023/07/31 06:11:39;;;;;;;8.52;6.97;;;;;;;30.11;100.00;97055.38;5050005;28;20052;-74
2023/07/31 06:14:04;;;;;;;8.75;7.00;;;;;;;29.38;100.00;97048.84;5067947;28;20058;-73
2023/07/31 06:16:32;;;;;;;16.58;6.93;;;;;;;28.99;100.00;97058.25;5067795;28;20404;-74
2023/07/31 06:19:09;;;;;;;14.20;8.48;;;;;;;29.50;100.00;97075.47;5067878;28;20506;-75
2023/07/31 06:21:37;;;;;;;15.20;7.18;;;;;;;29.87;100.00;97070.91;5067777;28;20508;-74
2023/07/31 06:24:03;;;;;;;10.00;7.40;;;;;;;30.14;100.00;97065.97;5067769;28;20028;-73
2023/07/31 06:26:28;;;;;;;10.27;8.57;;;;;;;30.22;100.00;97073.94;5049451;28;20388;-74
2023/07/31 06:28:55;;;;;;;10.18;7.35;;;;;;;29.73;100.00;97076.75;5049581;28;20062;-73
2023/07/31 06:31:22;;;;;;;10.95;7.28;;;;;;;29.58;100.00;97072.44;5067622;28;20047;-73
2023/07/31 06:33:49;;;;;;;8.95;7.25;;;;;;;30.17;100.00;97068.25;5067682;28;20413;-74
2023/07/31 06:36:15;;;;;;;8.98;6.82;;;;;;;31.10;100.00;97054.97;5067510;28;20510;-74
2023/07/31 06:38:40;;;;;;;27.52;17.42;;;;;;;32.39;92.88;97052.03;5050357;28;20045;-74
2023/07/31 06:41:05;;;;;;;7.68;6.90;;;;;;;32.36;90.75;97063.59;5012769;28;20060;-73
2023/07/31 06:43:31;;;;;;;18.33;7.63;;;;;;;33.06;86.71;97049.50;5047485;28;20031;-73
2023/07/31 06:45:56;;;;;;;9.75;6.15;;;;;;;33.95;77.67;97048.56;5029569;28;20040;-74
2023/07/31 06:48:22;;;;;;;6.30;5.50;;;;;;;32.95;74.56;97037.34;5047201;28;20097;-73
2023/07/31 06:50:47;;;;;;;7.65;6.00;;;;;;;33.02;78.08;97039.97;5029607;28;20032;-73
2023/07/31 06:53:13;;;;;;;9.05;7.93;;;;;;;34.12;73.16;97042.97;5047156;28;20041;-74
2023/07/31 06:55:41;;;;;;;10.05;7.05;;;;;;;33.50;75.05;97040.31;5047623;28;21427;-73
2023/07/31 06:58:07;;;;;;;13.38;8.18;;;;;;;34.10;71.21;97043.25;5047661;28;20025;-74
2023/07/31 07:00:32;;;;;;;7.03;6.10;;;;;;;34.61;65.73;97036.44;5029074;28;20021;-74
2023/07/31 07:02:58;;;;;;;10.00;6.50;;;;;;;35.61;60.45;97029.44;5047370;28;20068;-74
2023/07/31 07:05:23;;;;;;;7.80;6.10;;;;;;;35.75;60.41;97037.06;5047274;28;20032;-74
2023/07/31 07:07:51;;;;;;;7.40;5.63;;;;;;;36.14;58.16;97028.44;5029470;28;20032;-73
2023/07/31 07:10:16;;;;;;;5.82;5.25;;;;;;;35.90;54.91;97028.81;5029339;28;20498;-75
2023/07/31 07:12:45;;;;;;;6.05;4.97;;;;;;;36.00;51.45;97021.63;5046924;28;20032;-78
2023/07/31 07:15:11;;;;;;;10.20;7.93;;;;;;;36.12;50.97;97023.13;5051533;28;20151;-74
2023/07/31 07:17:37;;;;;;;8.27;5.25;;;;;;;35.74;50.83;97020.63;5051005;28;20020;-74
2023/07/31 07:20:03;;;;;;;9.40;5.15;;;;;;;34.55;53.46;97026.31;5033509;28;20040;-74
2023/07/31 07:22:29;;;;;;;8.98;6.30;;;;;;;35.07;52.74;97031.41;5050960;28;20033;-74
2023/07/31 07:24:54;;;;;;;6.13;5.50;;;;;;;35.53;51.23;97022.41;5016572;28;20036;-74
2023/07/31 07:27:20;;;;;;;6.60;5.13;;;;;;;35.13;53.10;97016.47;5049781;28;20032;-74
2023/07/31 07:29:46;;;;;;;5.50;4.97;;;;;;;34.71;53.94;97019.88;5032938;28;20032;-75
2023/07/31 07:32:12;;;;;;;7.13;4.80;;;;;;;35.90;51.72;97022.44;5033162;28;20106;-74
2023/07/31 07:34:37;;;;;;;19.00;5.10;;;;;;;36.95;46.80;97010.94;5050795;28;20025;-74
2023/07/31 07:37:03;;;;;;;4.50;4.05;;;;;;;36.79;43.40;97006.44;5054299;28;20044;-74
2023/07/31 07:39:29;;;;;;;6.00;3.90;;;;;;;35.70;44.81;97009.19;5070700;28;20021;-74
2023/07/31 07:41:54;;;;;;;4.18;3.72;;;;;;;35.67;44.35;97011.66;5052671;28;20021;-74
2023/07/31 07:44:20;;;;;;;4.20;3.80;;;;;;;36.64;44.14;97011.97;5070775;28;20048;-74
2023/07/31 07:46:45;;;;;;;5.20;3.75;;;;;;;36.84;42.82;97017.63;5085517;28;20028;-74
2023/07/31 07:49:11;;;;;;;4.53;4.00;;;;;;;34.82;46.70;97016.09;5052634;28;20029;-74
2023/07/31 07:51:36;;;;;;;5.13;3.80;;;;;;;35.86;46.50;97024.06;5070384;28;20506;-75
2023/07/31 07:54:02;;;;;;;7.85;3.90;;;;;;;36.00;44.36;97024.41;5052646;28;20025;-74
2023/07/31 07:56:28;;;;;;;5.63;4.57;;;;;;;35.97;47.28;97023.00;5070550;28;20016;-74
2023/07/31 07:58:54;;;;;;;6.15;4.38;;;;;;;36.77;44.94;97024.56;5068542;28;20448;-74
2023/07/31 08:01:19;;;;;;;4.97;3.30;;;;;;;37.53;41.85;97019.19;5052422;28;20032;-73
2023/07/31 08:03:45;;;;;;;6.68;4.00;;;;;;;38.54;39.74;97024.63;5070125;28;20526;-75
2023/07/31 08:06:11;;;;;;;22.17;4.55;;;;;;;39.27;38.71;97017.28;5052690;28;20466;-74
2023/07/31 08:08:37;;;;;;;9.57;3.58;;;;;;;39.30;37.77;97011.94;5070078;28;20029;-74
2023/07/31 08:11:02;;;;;;;6.20;3.17;;;;;;;38.09;39.43;97014.38;5070239;28;20476;-74
2023/07/31 08:13:28;;;;;;;6.60;3.17;;;;;;;37.32;41.19;97004.31;5069021;28;20115;-74
2023/07/31 08:15:53;;;;;;;4.18;3.78;;;;;;;37.52;41.25;97012.75;5068641;28;20094;-73
2023/07/31 08:18:19;;;;;;;15.90;3.63;;;;;;;36.15;42.85;97014.22;5070380;28;20085;-76
2023/07/31 08:20:45;;;;;;;14.02;3.38;;;;;;;34.89;47.36;97026.22;5052202;28;20032;-76
2023/07/31 08:23:10;;;;;;;3.22;2.92;;;;;;;32.87;49.85;97023.91;5085745;28;20040;-77
2023/07/31 08:25:36;;;;;;;3.75;3.20;;;;;;;32.39;52.42;97031.78;5069003;28;20057;-77
2023/07/31 08:28:02;;;;;;;6.40;3.03;;;;;;;32.06;55.78;97029.69;5069835;28;20066;-77
2023/07/31 08:30:28;;;;;;;3.28;2.97;;;;;;;31.40;63.33;97041.91;5052361;28;20384;-76
2023/07/31 08:32:53;;;;;;;11.05;3.42;;;;;;;32.55;57.96;97042.06;5068860;28;20034;-76
2023/07/31 08:35:19;;;;;;;8.95;2.60;;;;;;;32.17;51.46;97024.13;5070024;28;20029;-78
2023/07/31 08:37:44;;;;;;;6.47;2.85;;;;;;;31.94;55.02;97035.19;5069456;28;20412;-77
2023/07/31 08:40:10;;;;;;;6.80;3.30;;;;;;;32.54;52.27;97027.41;5051909;28;20044;-77
2023/07/31 08:42:46;;;;;;;9.65;3.55;;;;;;;32.33;54.97;97043.84;5051687;28;20035;-77
2023/07/31 08:45:15;;;;;;;5.88;2.92;;;;;;;31.35;58.28;97036.22;5034837;28;20041;-77
2023/07/31 08:47:48;;;;;;;10.07;3.42;;;;;;;31.60;58.70;97034.13;5069654;28;20028;-77
2023/07/31 08:50:15;;;;;;;3.90;2.92;;;;;;;31.52;59.45;97040.03;5051664;28;20545;-77
2023/07/31 08:52:40;;;;;;;2.78;2.53;;;;;;;32.19;53.86;97024.72;5051805;28;20025;-78
2023/07/31 08:55:07;;;;;;;4.65;2.20;;;;;;;33.77;46.53;97016.38;5051166;28;20085;-77
2023/07/31 08:57:35;;;;;;;1.70;1.60;;;;;;;33.27;46.69;97018.28;5051456;28;20182;-77
2023/07/31 09:00:01;;;;;;;2.92;2.20;;;;;;;34.87;43.67;97022.84;5051556;28;20033;-78
2023/07/31 09:02:31;;;;;;;3.08;2.10;;;;;;;35.79;40.54;96999.22;5051475;28;20111;-78
2023/07/31 09:04:57;;;;;;;2.45;2.17;;;;;;;36.38;38.88;97001.81;5051320;28;20178;-77
2023/07/31 09:07:24;;;;;;;4.30;2.00;;;;;;;34.19;42.26;97013.09;5051241;28;20115;-78
2023/07/31 09:09:50;;;;;;;6.03;1.73;;;;;;;35.89;40.30;96998.47;5050882;28;20017;-76
2023/07/31 09:12:15;;;;;;;2.90;2.00;;;;;;;37.07;39.20;96993.97;5069294;28;20093;-79
2023/07/31 09:14:42;;;;;;;2.25;1.83;;;;;;;38.16;36.83;97003.75;5034783;28;20193;-78
2023/07/31 09:17:07;;;;;;;17.23;2.78;;;;;;;38.32;37.01;97005.38;5050965;28;20032;-80
2023/07/31 09:19:36;;;;;;;7.05;2.78;;;;;;;39.00;36.56;96998.97;5051449;28;20024;-78
2023/07/31 09:22:02;;;;;;;4.68;2.05;;;;;;;38.22;37.73;97013.78;5051498;28;20024;-77
2023/07/31 09:24:33;;;;;;;7.35;3.75;;;;;;;38.30;36.53;96999.25;5051225;28;20552;-78
2023/07/31 09:27:00;;;;;;;3.20;2.90;;;;;;;36.35;39.95;97013.50;5034756;28;20028;-79
2023/07/31 09:29:29;;;;;;;7.50;2.78;;;;;;;38.66;37.13;97002.75;5050747;28;20420;-80
2023/07/31 09:31:55;;;;;;;2.40;2.20;;;;;;;38.57;35.35;96991.34;5051206;28;20093;-79
2023/07/31 09:34:47;;;;;;;2.05;1.85;;;;;;;38.31;35.98;96998.09;5034683;28;20422;-82
2023/07/31 09:37:40;;;;;;;6.63;2.30;;;;;;;37.63;36.24;96971.69;5049429;28;20620;-80
2023/07/31 09:40:07;;;;;;;3.65;1.88;;;;;;;37.93;35.81;96980.88;5067885;28;20052;-77
2023/07/31 09:42:34;;;;;;;3.35;1.90;;;;;;;37.81;36.91;96990.69;5068669;28;20044;-78
2023/07/31 09:45:09;;;;;;;4.03;2.47;;;;;;;38.78;35.11;96992.06;5068473;28;20408;-77
2023/07/31 09:47:35;;;;;;;7.03;2.13;;;;;;;37.22;37.21;96988.44;5068734;28;20028;-77
2023/07/31 09:50:01;;;;;;;4.05;2.00;;;;;;;36.76;38.18;96993.06;5050799;28;20044;-77
2023/07/31 09:52:27;;;;;;;4.05;2.50;;;;;;;36.39;39.64;97003.50;5033563;28;20032;-77
2023/07/31 09:54:53;;;;;;;3.17;2.20;;;;;;;36.53;39.76;97007.47;5068446;28;20098;-78
2023/07/31 09:57:21;;;;;;;3.85;2.60;;;;;;;36.50;39.83;97002.44;5050319;28;20028;-78
2023/07/31 09:59:49;;;;;;;5.70;2.45;;;;;;;36.92;38.93;96997.56;5050387;28;20412;-74
2023/07/31 10:02:22;;;;;;;6.43;2.67;;;;;;;38.89;34.74;96988.94;5068179;28;20552;-80
2023/07/31 10:04:51;;;;;;;16.27;2.80;;;;;;;38.37;36.47;96997.00;5050302;28;20058;-81
2023/07/31 10:07:18;;;;;;;2.92;2.20;;;;;;;36.97;37.34;96999.53;5050067;28;20043;-80
2023/07/31 10:09:45;;;;;;;4.07;2.10;;;;;;;36.95;38.21;96997.00;5050553;28;20028;-80
2023/07/31 10:12:12;;;;;;;6.28;2.30;;;;;;;36.07;39.23;97000.00;5050439;28;20063;-79
2023/07/31 10:14:38;;;;;;;8.48;2.58;;;;;;;36.72;39.19;96999.47;5050156;28;20032;-80
2023/07/31 10:17:05;;;;;;;3.67;2.10;;;;;;;35.76;39.62;96999.78;5050400;28;20024;-80
2023/07/31 10:19:30;;;;;;;8.98;2.70;;;;;;;36.01;40.13;96989.88;5050100;28;20024;-79
2023/07/31 10:21:58;;;;;;;2.85;2.05;;;;;;;36.26;39.13;96992.84;5050174;28;20024;-79
2023/07/31 10:24:24;;;;;;;15.50;2.85;;;;;;;35.70;41.09;97003.63;5066854;28;20059;-80
2023/07/31 10:26:52;;;;;;;4.13;2.20;;;;;;;35.95;40.36;96988.19;5050260;28;20020;-79
2023/07/31 10:29:17;;;;;;;4.57;2.45;;;;;;;36.86;39.71;96987.50;5049967;28;20024;-80
2023/07/31 10:31:44;;;;;;;6.22;2.92;;;;;;;38.03;37.14;96990.34;5050207;28;20033;-80
2023/07/31 10:34:09;;;;;;;5.07;2.50;;;;;;;39.20;35.45;96986.78;5050078;28;20028;-79
2023/07/31 10:36:35;;;;;;;7.45;2.42;;;;;;;37.30;38.21;96989.81;5049982;28;20495;-78
2023/07/31 10:39:04;;;;;;;29.65;20.38;;;;;;;35.70;40.46;97000.00;5049985;28;20063;-78
2023/07/31 10:41:30;;;;;;;9.38;5.72;;;;;;;34.71;43.33;97003.22;5067769;28;20036;-78
2023/07/31 10:44:00;;;;;;;8.88;3.53;;;;;;;36.35;40.80;97011.56;5068002;28;20078;-78
2023/07/31 10:46:27;;;;;;;14.73;2.90;;;;;;;38.08;37.76;97004.34;5032928;28;20036;-77
2023/07/31 10:49:01;;;;;;;7.70;3.30;;;;;;;38.67;37.49;97001.63;5049505;28;20443;-81
2023/07/31 10:51:35;;;;;;;2.80;2.33;;;;;;;38.57;36.59;96994.13;5068094;28;20388;-78
2023/07/31 10:54:16;;;;;;;7.00;2.35;;;;;;;39.90;35.15;96982.56;5049825;28;20115;-79
2023/07/31 10:56:46;;;;;;;4.57;2.40;;;;;;;39.15;35.16;96989.63;5049694;28;20028;-79
2023/07/31 10:59:12;;;;;;;7.97;2.10;;;;;;;39.04;34.52;96983.25;5050055;28;20127;-78
2023/07/31 11:01:52;;;;;;;4.95;1.85;;;;;;;37.91;36.28;96976.69;5083208;28;20024;-77
2023/07/31 11:04:25;;;;;;;6.45;2.25;;;;;;;39.89;33.88;96969.69;5050156;28;20033;-77
2023/07/31 11:07:02;;;;;;;7.63;2.10;;;;;;;41.22;31.75;96959.34;5049720;28;20028;-78
2023/07/31 11:09:32;;;;;;;5.38;2.42;;;;;;;39.50;34.38;96963.34;5049681;28;20027;-76
2023/07/31 11:11:59;;;;;;;5.47;2.33;;;;;;;40.18;33.45;96960.47;5049657;28;20115;-78
2023/07/31 11:14:24;;;;;;;4.30;2.60;;;;;;;39.41;34.68;96963.09;5067558;28;20028;-78
2023/07/31 11:16:53;;;;;;;5.88;2.30;;;;;;;38.46;34.47;96965.38;5067236;28;20027;-78
2023/07/31 11:19:26;;;;;;;2.63;2.10;;;;;;;37.76;36.36;96955.19;5050050;28;20115;-77
2023/07/31 11:21:55;;;;;;;3.03;2.45;;;;;;;38.00;35.79;96958.25;5049288;28;20082;-77